Airfield :
LOGIN :

Register | Disclaimer

   EN    FR    IT 

 










Legend :    VFR   Marginal VFR   IFR   Intensive IFR   Very Intensive IFR
Visi :
Ceiling :
>= 8 km
>= 3000ft
5 to 8 km
1000 to 3000 ft
1500m to 5 km
500 to 1000 ft
800 to 1500m
200 to 500 ft
< 800m
< 200 ft
Symbols :   Thunderstorms  Fog  Heavy snow  Heavy precipitations  Wind > 20 kt
SIGMETs :     Misc.  Thunderstorms  Icing  Turbulence  Mountain Waves  Volcanic Ashes






- Airport Elevation : 102 ft
- IATA code : CNG


LFBG - Cognac

CURRENT METAR :
  • 282000Z AUTO 22007KT 9999 SCT027/// BKN036/// BKN050/// ///TCU 13/11 Q1020

EXPIRED METARs :
  • 281930Z AUTO 23010KT 9999 BKN026 BKN033 BKN074 14/11 Q1020
  • 281900Z AUTO 22016KT 9999 SCT021 SCT043 BKN072 14/11 Q1020
  • 281830Z AUTO 23010KT 9999 SCT021 OVC074 15/12 Q1020
  • 281800Z AUTO 22010KT 9999 SCT022 BKN072 BKN090 15/11 Q1020
  • 281730Z AUTO 23012KT 9999 FEW026 BKN088 OVC250 15/11 Q1019

TAF TAF LFBG
Valid from the 28 at 15:00 until the 29 at 15:00 UTC


281400Z 2815/2915 25010KT 9999 SCT030 BKN050
PROB40
TEMPO 2815/2818 25015G25KT 3000 SHRA BKN025TCU
TEMPO 2818/2904 3000 SHRA BKN020TCU
PROB30
TEMPO 2905/2909 3000 BR BKN005



MET'MAP, your aeronautical weather chart ! - Copyright ORBIFLY December 2007 - Disclaimer

ORBIFLY MET'MAP TEAM :

Programming & Development : Alexandra Zaïnal
Concept & original design : Baudouin d'Aumeries
Assistance for programming : Marc-Olivier Méhu
Technical & hardware support : Manuel Goepfert

Contact : metmap@orbifly.com




SOURCES & CREDITS :

   NOAA